createdAt,value
2023-02-02T00:01:51.120Z,8.10
2023-02-02T00:04:22.042Z,6.17
2023-02-02T00:06:49.253Z,6.90
2023-02-02T00:09:17.858Z,9.57
2023-02-02T00:11:45.683Z,8.93
2023-02-02T00:14:13.246Z,9.70
2023-02-02T00:16:39.798Z,9.27
2023-02-02T00:19:17.611Z,8.70
2023-02-02T00:21:45.070Z,11.30
2023-02-02T00:24:13.411Z,8.57
2023-02-02T00:26:41.931Z,12.37
2023-02-02T00:29:14.522Z,7.90
2023-02-02T00:31:41.168Z,12.37
2023-02-02T00:34:07.835Z,7.83
2023-02-02T00:36:34.410Z,10.33
2023-02-02T00:39:01.065Z,6.97
2023-02-02T00:41:27.670Z,7.70
2023-02-02T00:44:12.880Z,9.30
2023-02-02T00:46:41.343Z,8.53
2023-02-02T00:49:08.784Z,8.53
2023-02-02T00:51:36.820Z,10.73
2023-02-02T00:54:04.793Z,11.70
2023-02-02T00:56:31.456Z,11.30
2023-02-02T00:58:58.106Z,8.43
2023-02-02T01:01:25.001Z,10.90
2023-02-02T01:03:52.034Z,9.33
2023-02-02T01:06:19.211Z,9.80
2023-02-02T01:08:46.250Z,10.17
2023-02-02T01:11:12.830Z,12.43
2023-02-02T01:13:39.672Z,7.40
2023-02-02T01:16:07.431Z,9.33
2023-02-02T01:18:34.053Z,8.83
2023-02-02T01:21:04.179Z,10.03
2023-02-02T01:23:31.070Z,10.93
2023-02-02T01:25:59.591Z,9.53
2023-02-02T01:28:27.440Z,9.40
2023-02-02T01:30:54.718Z,9.67
2023-02-02T01:33:23.088Z,9.77
2023-02-02T01:35:51.966Z,8.43
2023-02-02T01:38:19.484Z,8.03
2023-02-02T01:40:51.453Z,9.23
2023-02-02T01:43:27.932Z,10.17
2023-02-02T01:45:56.260Z,6.57
2023-02-02T01:48:30.483Z,9.13
2023-02-02T01:51:01.290Z,5.50
2023-02-02T01:53:29.568Z,9.17
2023-02-02T01:55:56.821Z,9.17
2023-02-02T01:58:28.131Z,5.93
2023-02-02T02:00:55.995Z,10.20
2023-02-02T02:03:26.371Z,8.23
2023-02-02T02:06:05.772Z,9.47
2023-02-02T02:08:47.054Z,7.50
2023-02-02T02:11:14.551Z,9.83
2023-02-02T02:14:00.343Z,9.17
2023-02-02T02:16:36.032Z,9.17
2023-02-02T02:19:15.551Z,11.87
2023-02-02T02:22:37.536Z,10.03
2023-02-02T02:26:07.195Z,8.73
2023-02-02T02:28:56.717Z,11.10
2023-02-02T02:31:23.761Z,9.07
2023-02-02T02:34:03.797Z,9.10
2023-02-02T02:36:45.124Z,9.63
2023-02-02T02:39:24.360Z,9.47
2023-02-02T02:41:58.544Z,6.63
2023-02-02T02:44:27.506Z,6.40
2023-02-02T02:46:55.179Z,7.97
2023-02-02T02:49:21.834Z,11.53
2023-02-02T02:51:53.499Z,7.67
2023-02-02T02:54:36.038Z,7.90
2023-02-02T02:57:39.396Z,7.03
2023-02-02T03:00:20.854Z,9.17
2023-02-02T03:03:01.520Z,11.70
2023-02-02T03:05:51.842Z,7.97
2023-02-02T03:08:49.130Z,7.93
2023-02-02T03:11:16.585Z,10.17
2023-02-02T03:13:43.577Z,7.80
2023-02-02T03:16:11.027Z,9.57
2023-02-02T03:18:38.383Z,11.87
2023-02-02T03:21:05.207Z,11.17
2023-02-02T03:23:31.814Z,10.63
2023-02-02T03:25:59.641Z,7.80
2023-02-02T03:28:27.566Z,10.07
2023-02-02T03:30:55.119Z,10.17
2023-02-02T03:33:21.915Z,9.77
2023-02-02T03:35:48.463Z,10.53
2023-02-02T03:38:15.043Z,7.83
2023-02-02T03:40:41.770Z,9.07
2023-02-02T03:43:08.819Z,7.23
2023-02-02T03:45:35.665Z,12.20
2023-02-02T03:48:05.896Z,9.60
2023-02-02T03:50:33.311Z,9.53
2023-02-02T03:53:00.335Z,13.87
2023-02-02T03:55:27.021Z,9.37
2023-02-02T03:57:53.656Z,8.37
2023-02-02T04:00:20.677Z,9.63
2023-02-02T04:02:47.277Z,9.93
2023-02-02T04:05:13.919Z,10.60
2023-02-02T04:07:40.563Z,7.97
2023-02-02T04:10:07.389Z,11.43
2023-02-02T04:12:33.935Z,11.80
2023-02-02T04:15:00.493Z,9.33
2023-02-02T04:17:27.133Z,10.00
2023-02-02T04:19:58.130Z,8.83
2023-02-02T04:22:26.153Z,8.07
2023-02-02T04:24:52.951Z,7.57
2023-02-02T04:27:19.700Z,8.97
2023-02-02T04:29:46.374Z,9.77
2023-02-02T04:32:17.520Z,8.00
2023-02-02T04:34:44.920Z,9.53
2023-02-02T04:37:12.072Z,8.17
2023-02-02T04:39:38.767Z,9.57
2023-02-02T04:42:05.446Z,10.73
2023-02-02T04:44:32.105Z,9.63
2023-02-02T04:46:58.710Z,9.57
2023-02-02T04:49:25.312Z,10.73
2023-02-02T04:51:51.925Z,7.63
2023-02-02T04:54:18.536Z,10.33
2023-02-02T04:56:45.131Z,10.93
2023-02-02T04:59:11.762Z,10.67
2023-02-02T05:01:38.339Z,10.93
2023-02-02T05:04:05.128Z,10.27
2023-02-02T05:06:31.757Z,11.17
2023-02-02T05:08:58.388Z,8.93
2023-02-02T05:11:24.970Z,11.33
2023-02-02T05:13:53.786Z,7.97
2023-02-02T05:16:21.710Z,10.53
2023-02-02T05:18:52.688Z,8.07
2023-02-02T05:21:19.842Z,9.93
2023-02-02T05:23:46.772Z,9.73
2023-02-02T05:26:17.136Z,7.27
2023-02-02T05:28:43.740Z,9.03
2023-02-02T05:31:10.389Z,7.37
2023-02-02T05:33:37.135Z,8.50
2023-02-02T05:36:04.757Z,9.00
2023-02-02T05:38:31.631Z,9.83
2023-02-02T05:40:58.352Z,11.40
2023-02-02T05:43:26.411Z,9.03
2023-02-02T05:45:53.612Z,11.30
2023-02-02T05:48:20.362Z,11.47
2023-02-02T05:51:07.713Z,8.80
2023-02-02T05:53:34.287Z,11.47
2023-02-02T05:56:00.933Z,13.27
2023-02-02T05:58:28.168Z,10.77
2023-02-02T06:00:56.618Z,11.20
2023-02-02T06:03:23.760Z,10.40
2023-02-02T06:05:50.463Z,7.83
2023-02-02T06:08:17.100Z,6.23
2023-02-02T06:10:44.035Z,8.67
2023-02-02T06:13:11.026Z,10.40
2023-02-02T06:15:37.814Z,11.73
2023-02-02T06:18:06.720Z,11.90
2023-02-02T06:20:34.793Z,12.13
2023-02-02T06:23:01.386Z,9.27
2023-02-02T06:25:28.267Z,6.40
2023-02-02T06:27:59.011Z,12.00
2023-02-02T06:30:25.966Z,7.60
2023-02-02T06:32:53.174Z,11.67
2023-02-02T06:35:20.136Z,9.27
2023-02-02T06:37:46.734Z,8.47
2023-02-02T06:40:13.839Z,7.93
2023-02-02T06:42:40.959Z,9.80
2023-02-02T06:45:08.290Z,12.57
2023-02-02T06:47:34.935Z,11.17
2023-02-02T06:50:01.502Z,9.97
2023-02-02T06:52:28.282Z,12.40
2023-02-02T06:54:54.931Z,5.80
2023-02-02T06:57:21.576Z,10.63
2023-02-02T06:59:48.153Z,9.63
2023-02-02T07:02:14.769Z,9.87
2023-02-02T07:04:41.358Z,11.07
2023-02-02T07:07:08.033Z,9.43
2023-02-02T07:09:35.675Z,11.90
2023-02-02T07:12:02.495Z,10.60
2023-02-02T07:14:29.026Z,10.73
2023-02-02T07:16:55.598Z,10.03
2023-02-02T07:19:22.201Z,12.47
2023-02-02T07:21:48.856Z,11.47
2023-02-02T07:24:15.580Z,10.07
2023-02-02T07:26:42.256Z,10.10
2023-02-02T07:29:13.229Z,10.67
2023-02-02T07:31:40.455Z,11.90
2023-02-02T07:34:07.144Z,12.33
2023-02-02T07:36:33.953Z,11.43
2023-02-02T07:39:03.915Z,11.70
2023-02-02T07:41:31.167Z,11.10
2023-02-02T07:43:57.730Z,9.47
2023-02-02T07:46:24.397Z,10.47
2023-02-02T07:48:54.899Z,9.80
2023-02-02T07:51:21.893Z,9.70
2023-02-02T07:53:50.427Z,11.97
2023-02-02T07:56:22.351Z,11.80
2023-02-02T07:58:52.216Z,7.70
2023-02-02T08:01:20.540Z,9.17
2023-02-02T08:03:47.238Z,9.90
2023-02-02T08:06:25.527Z,13.30
2023-02-02T08:08:52.315Z,9.50
2023-02-02T08:11:21.968Z,9.67
2023-02-02T08:13:57.232Z,8.73
2023-02-02T08:16:25.193Z,9.07
2023-02-02T08:18:51.917Z,10.73
2023-02-02T08:21:19.405Z,9.13
2023-02-02T08:23:46.534Z,13.67
2023-02-02T08:26:18.932Z,9.00
2023-02-02T08:28:48.636Z,7.50
2023-02-02T08:31:19.280Z,9.60
2023-02-02T08:33:46.324Z,7.33
2023-02-02T08:36:14.913Z,10.87
2023-02-02T08:38:41.913Z,7.67
2023-02-02T08:41:10.352Z,10.37
2023-02-02T08:43:37.437Z,8.53
2023-02-02T08:46:05.730Z,5.77
2023-02-02T08:48:34.651Z,6.63
2023-02-02T08:51:01.913Z,8.70
2023-02-02T08:53:29.175Z,10.17
2023-02-02T08:56:04.824Z,7.00
2023-02-02T08:58:31.805Z,9.47
2023-02-02T09:01:12.791Z,6.40
2023-02-02T09:03:40.330Z,8.87
2023-02-02T09:06:08.925Z,4.90
2023-02-02T09:08:35.789Z,7.53
2023-02-02T09:11:11.182Z,7.60
2023-02-02T09:13:39.610Z,7.20
2023-02-02T09:16:10.080Z,6.97
2023-02-02T09:18:37.139Z,7.57
2023-02-02T09:21:06.637Z,5.70
2023-02-02T09:23:35.369Z,6.33
2023-02-02T09:26:28.453Z,5.57
2023-02-02T09:29:02.660Z,8.17
2023-02-02T09:31:31.251Z,4.60
2023-02-02T09:34:02.091Z,8.00
2023-02-02T09:36:29.328Z,5.77
2023-02-02T09:38:55.914Z,6.80
2023-02-02T09:41:37.870Z,8.40
2023-02-02T09:44:19.950Z,5.67
2023-02-02T09:47:01.294Z,4.33
2023-02-02T09:49:49.415Z,7.23
2023-02-02T09:52:23.186Z,4.57
2023-02-02T09:54:52.305Z,4.90
2023-02-02T09:57:25.517Z,3.73
2023-02-02T09:59:54.113Z,6.87
2023-02-02T10:02:45.785Z,5.43
2023-02-02T10:05:18.763Z,5.17
2023-02-02T10:07:50.441Z,5.03
2023-02-02T10:10:28.831Z,4.10
2023-02-02T10:13:22.253Z,4.90
2023-02-02T10:16:17.238Z,5.67
2023-02-02T10:18:56.135Z,5.93
2023-02-02T10:21:33.551Z,4.77
2023-02-02T10:24:02.897Z,4.43
2023-02-02T10:26:51.760Z,6.00
2023-02-02T10:29:24.221Z,3.23
2023-02-02T10:32:12.798Z,5.37
2023-02-02T10:35:13.620Z,4.10
2023-02-02T10:38:09.809Z,3.93
2023-02-02T10:40:39.631Z,7.43
2023-02-02T10:43:46.137Z,4.77
2023-02-02T10:46:19.915Z,2.33
2023-02-02T10:48:48.112Z,4.67
2023-02-02T10:51:27.766Z,5.30
2023-02-02T10:53:57.543Z,6.23
2023-02-02T10:56:34.711Z,3.73
2023-02-02T10:59:14.752Z,4.40
2023-02-02T11:01:41.401Z,4.07
2023-02-02T11:04:29.098Z,3.20
2023-02-02T11:06:56.234Z,2.87
2023-02-02T11:09:32.856Z,3.87
2023-02-02T11:12:33.059Z,6.03
2023-02-02T11:15:06.715Z,3.63
2023-02-02T11:17:34.810Z,2.40
2023-02-02T11:20:01.843Z,3.43
2023-02-02T11:22:38.463Z,2.67
2023-02-02T11:25:07.967Z,3.97
2023-02-02T11:27:43.191Z,2.93
2023-02-02T11:30:27.545Z,1.70
2023-02-02T11:32:55.725Z,1.80
2023-02-02T11:35:24.818Z,2.47
2023-02-02T11:38:09.756Z,3.43
2023-02-02T11:40:40.866Z,2.93
2023-02-02T11:43:21.030Z,2.87
2023-02-02T11:46:00.209Z,2.60
2023-02-02T11:48:32.517Z,2.87
2023-02-02T11:51:01.324Z,1.60
2023-02-02T11:53:37.871Z,1.97
2023-02-02T11:56:18.195Z,1.83
2023-02-02T11:58:53.383Z,2.77
2023-02-02T12:01:28.334Z,1.50
2023-02-02T12:03:57.356Z,1.87
2023-02-02T12:06:44.184Z,2.37
2023-02-02T12:09:19.658Z,1.17
2023-02-02T12:12:09.820Z,1.60
2023-02-02T12:14:45.347Z,0.50
2023-02-02T12:17:21.897Z,2.53
2023-02-02T12:20:07.034Z,1.00
2023-02-02T12:22:36.467Z,2.17
2023-02-02T12:25:15.375Z,2.23
2023-02-02T12:28:27.584Z,1.63
2023-02-02T12:31:03.271Z,3.77
2023-02-02T12:33:29.856Z,2.13
2023-02-02T12:36:22.362Z,2.57
2023-02-02T12:39:25.869Z,1.60
2023-02-02T12:42:23.997Z,1.43
2023-02-02T12:44:59.239Z,1.40
2023-02-02T12:47:25.761Z,1.03
2023-02-02T12:50:04.725Z,1.80
2023-02-02T12:52:53.771Z,0.93
2023-02-02T12:55:36.806Z,1.57
2023-02-02T12:58:18.691Z,1.10
2023-02-02T13:01:05.214Z,1.60
2023-02-02T13:03:56.529Z,1.40
2023-02-02T13:06:45.024Z,1.90
2023-02-02T13:09:21.586Z,1.37
2023-02-02T13:11:53.689Z,1.57
2023-02-02T13:14:25.840Z,2.17
2023-02-02T13:16:57.151Z,2.07
2023-02-02T13:19:32.949Z,1.37
2023-02-02T13:22:02.142Z,1.27
2023-02-02T13:24:31.920Z,1.00
2023-02-02T13:27:02.067Z,0.90
2023-02-02T13:29:47.300Z,0.80
2023-02-02T13:32:30.904Z,1.83
2023-02-02T13:35:13.289Z,1.83
2023-02-02T13:37:47.952Z,1.10
2023-02-02T13:40:23.738Z,1.50
2023-02-02T13:43:11.488Z,1.47
2023-02-02T13:45:48.797Z,1.67
2023-02-02T13:48:31.458Z,1.50
2023-02-02T13:51:10.166Z,2.20
2023-02-02T13:53:54.798Z,1.83
2023-02-02T13:56:40.585Z,1.10
2023-02-02T13:59:16.061Z,1.60
2023-02-02T14:01:48.482Z,2.80
2023-02-02T14:04:26.083Z,2.17
2023-02-02T14:07:07.081Z,1.70
2023-02-02T14:09:37.519Z,1.60
2023-02-02T14:12:10.860Z,2.03
2023-02-02T14:14:39.887Z,1.37
2023-02-02T14:17:30.107Z,2.23
2023-02-02T14:20:01.651Z,2.57
2023-02-02T14:22:50.821Z,2.13
2023-02-02T14:25:29.967Z,2.00
2023-02-02T14:27:59.473Z,2.40
2023-02-02T14:30:32.804Z,2.10
2023-02-02T14:33:23.135Z,2.70
2023-02-02T14:35:49.680Z,2.20
2023-02-02T14:39:09.666Z,2.97
2023-02-02T14:42:20.376Z,2.37
2023-02-02T14:45:07.915Z,2.33
2023-02-02T14:48:01.267Z,2.87
2023-02-02T14:50:40.559Z,3.03
2023-02-02T14:53:16.109Z,5.27
2023-02-02T14:56:05.537Z,3.10
2023-02-02T14:58:36.839Z,3.43
2023-02-02T15:01:24.233Z,2.60
2023-02-02T15:03:54.004Z,2.93
2023-02-02T15:06:34.300Z,4.30
2023-02-02T15:09:23.455Z,3.43
2023-02-02T15:12:01.152Z,3.70
2023-02-02T15:14:55.942Z,3.27
2023-02-02T15:17:33.373Z,3.33
2023-02-02T15:20:24.739Z,3.63
2023-02-02T15:22:55.308Z,3.03
2023-02-02T15:25:32.261Z,5.17
2023-02-02T15:28:13.916Z,7.33
2023-02-02T15:30:45.294Z,3.70
2023-02-02T15:33:40.152Z,3.47
2023-02-02T15:36:14.151Z,4.47
2023-02-02T15:38:43.101Z,4.67
2023-02-02T15:41:32.709Z,3.13
2023-02-02T15:44:00.171Z,6.70
2023-02-02T15:46:35.139Z,3.47
2023-02-02T15:49:33.170Z,4.17
2023-02-02T15:52:03.868Z,4.93
2023-02-02T15:54:35.333Z,4.10
2023-02-02T15:57:02.822Z,4.17
2023-02-02T15:59:38.480Z,3.07
2023-02-02T16:02:23.166Z,3.60
2023-02-02T16:04:49.844Z,3.03
2023-02-02T16:07:26.395Z,6.37
2023-02-02T16:09:53.464Z,4.63
2023-02-02T16:12:23.494Z,4.83
2023-02-02T16:14:53.641Z,3.33
2023-02-02T16:17:32.500Z,4.40
2023-02-02T16:20:08.966Z,4.20
2023-02-02T16:22:37.147Z,2.63
2023-02-02T16:25:09.890Z,3.20
2023-02-02T16:27:37.772Z,4.13
2023-02-02T16:30:08.362Z,5.90
2023-02-02T16:32:38.845Z,3.57
2023-02-02T16:35:27.623Z,4.00
2023-02-02T16:38:31.583Z,3.67
2023-02-02T16:41:09.343Z,3.83
2023-02-02T16:43:38.561Z,4.00
2023-02-02T16:46:16.537Z,5.37
2023-02-02T16:48:56.901Z,2.30
2023-02-02T16:51:26.916Z,5.17
2023-02-02T16:54:10.670Z,4.97
2023-02-02T16:56:40.147Z,6.03
2023-02-02T16:59:22.006Z,3.50
2023-02-02T17:01:52.816Z,4.40
2023-02-02T17:04:24.767Z,5.77
2023-02-02T17:06:53.677Z,4.17
2023-02-02T17:09:35.488Z,4.47
2023-02-02T17:12:14.258Z,3.07
2023-02-02T17:15:00.118Z,4.57
2023-02-02T17:17:27.455Z,4.93
2023-02-02T17:19:54.273Z,4.20
2023-02-02T17:22:24.633Z,5.67
2023-02-02T17:24:52.370Z,3.53
2023-02-02T17:27:27.436Z,3.13
2023-02-02T17:29:55.383Z,3.67
2023-02-02T17:32:23.740Z,3.37
2023-02-02T17:34:50.593Z,3.00
2023-02-02T17:37:17.187Z,3.10
2023-02-02T17:39:43.844Z,3.67
2023-02-02T17:42:27.265Z,4.63
2023-02-02T17:44:54.046Z,4.27
2023-02-02T17:47:20.625Z,7.57
2023-02-02T17:49:47.200Z,6.90
2023-02-02T17:52:13.960Z,5.80
2023-02-02T17:54:40.571Z,6.70
2023-02-02T17:57:07.279Z,9.37
2023-02-02T17:59:33.881Z,6.63
2023-02-02T18:02:01.525Z,4.90
2023-02-02T18:04:28.576Z,4.97
2023-02-02T18:06:55.150Z,6.77
2023-02-02T18:09:21.754Z,5.27
2023-02-02T18:11:49.766Z,7.97
2023-02-02T18:14:16.469Z,5.40
2023-02-02T18:16:43.021Z,6.07
2023-02-02T18:19:10.349Z,6.27
2023-02-02T18:21:37.427Z,7.83
2023-02-02T18:24:04.317Z,7.07
2023-02-02T18:26:32.573Z,5.37
2023-02-02T18:28:59.811Z,7.03
2023-02-02T18:31:27.511Z,8.07
2023-02-02T18:33:54.571Z,9.13
2023-02-02T18:36:23.576Z,6.77
2023-02-02T18:38:51.369Z,11.97
2023-02-02T18:41:21.445Z,7.50
2023-02-02T18:43:48.357Z,7.53
2023-02-02T18:46:16.533Z,7.63
2023-02-02T18:48:43.648Z,5.17
2023-02-02T18:51:18.169Z,8.97
2023-02-02T18:53:46.650Z,6.80
2023-02-02T18:56:14.720Z,6.73
2023-02-02T18:58:41.537Z,6.00
2023-02-02T19:01:16.983Z,4.87
2023-02-02T19:03:48.272Z,7.43
2023-02-02T19:06:33.597Z,6.60
2023-02-02T19:09:00.187Z,4.73
2023-02-02T19:11:34.636Z,9.30
2023-02-02T19:14:01.498Z,9.47
2023-02-02T19:16:31.238Z,10.77
2023-02-02T19:19:04.367Z,7.30
2023-02-02T19:21:31.050Z,7.47
2023-02-02T19:23:59.545Z,7.23
2023-02-02T19:26:28.104Z,7.73
2023-02-02T19:29:12.931Z,5.97
2023-02-02T19:31:40.138Z,6.90
2023-02-02T19:34:12.448Z,7.67
2023-02-02T19:36:42.103Z,6.73
2023-02-02T19:39:16.055Z,7.43
2023-02-02T19:41:43.293Z,8.43
2023-02-02T19:44:16.929Z,4.50
2023-02-02T19:46:46.227Z,6.00
2023-02-02T19:49:34.317Z,5.67
2023-02-02T19:52:03.909Z,9.97
2023-02-02T19:54:35.884Z,8.00
2023-02-02T19:57:26.713Z,6.87
2023-02-02T19:59:54.806Z,8.03
2023-02-02T20:02:36.739Z,8.77
2023-02-02T20:05:18.750Z,11.50
2023-02-02T20:07:46.224Z,7.57
2023-02-02T20:10:16.160Z,9.17
2023-02-02T20:12:42.798Z,7.17
2023-02-02T20:15:32.326Z,5.93
2023-02-02T20:18:01.067Z,4.77
2023-02-02T20:20:38.896Z,7.77
2023-02-02T20:23:30.301Z,8.37
2023-02-02T20:25:57.883Z,4.87
2023-02-02T20:28:34.085Z,7.23
2023-02-02T20:31:05.825Z,8.63
2023-02-02T20:33:33.199Z,5.73
2023-02-02T20:36:02.401Z,8.53
2023-02-02T20:38:37.459Z,10.53
2023-02-02T20:41:05.846Z,7.57
2023-02-02T20:43:32.709Z,5.93
2023-02-02T20:45:59.337Z,8.13
2023-02-02T20:48:27.596Z,6.93
2023-02-02T20:50:54.201Z,6.47
2023-02-02T20:53:20.808Z,5.60
2023-02-02T20:55:47.375Z,6.17
2023-02-02T20:58:14.053Z,7.23
2023-02-02T21:00:40.756Z,7.70
2023-02-02T21:03:07.386Z,8.27
2023-02-02T21:05:34.002Z,7.63
2023-02-02T21:08:00.651Z,7.37
2023-02-02T21:10:28.356Z,7.60
2023-02-02T21:12:55.624Z,7.03
2023-02-02T21:15:22.974Z,10.40
2023-02-02T21:17:50.009Z,6.77
2023-02-02T21:20:17.279Z,7.27
2023-02-02T21:22:43.939Z,7.67
2023-02-02T21:25:11.246Z,12.43
2023-02-02T21:27:41.086Z,12.63
2023-02-02T21:30:10.860Z,13.23
2023-02-02T21:32:37.668Z,9.13
2023-02-02T21:35:06.411Z,7.43
2023-02-02T21:37:35.788Z,10.43
2023-02-02T21:40:11.395Z,9.17
2023-02-02T21:42:38.213Z,10.20
2023-02-02T21:45:27.114Z,8.17
2023-02-02T21:47:59.109Z,8.87
2023-02-02T21:50:28.896Z,5.67
2023-02-02T21:53:12.899Z,8.67
2023-02-02T21:55:40.738Z,9.83
2023-02-02T21:58:34.124Z,7.77
2023-02-02T22:01:18.055Z,10.57
2023-02-02T22:03:46.851Z,8.57
2023-02-02T22:06:51.898Z,10.73
2023-02-02T22:09:39.164Z,11.20
2023-02-02T22:12:32.598Z,9.07
2023-02-02T22:15:04.842Z,8.33
2023-02-02T22:17:41.890Z,10.00
2023-02-02T22:20:34.015Z,7.57
2023-02-02T22:23:03.033Z,7.20
2023-02-02T22:25:37.270Z,6.00
2023-02-02T22:28:12.921Z,6.53
2023-02-02T22:30:41.539Z,6.73
2023-02-02T22:33:11.131Z,10.53
2023-02-02T22:35:38.701Z,7.37
2023-02-02T22:38:06.252Z,5.90
2023-02-02T22:40:33.128Z,8.10
2023-02-02T22:43:05.672Z,5.37
2023-02-02T22:45:32.245Z,5.87
2023-02-02T22:47:59.126Z,7.07
2023-02-02T22:50:28.595Z,4.43
2023-02-02T22:52:55.621Z,7.53
2023-02-02T22:55:22.664Z,7.03
2023-02-02T22:57:49.242Z,4.47
2023-02-02T23:00:22.109Z,4.53
2023-02-02T23:02:49.135Z,5.07
2023-02-02T23:05:16.946Z,6.07
2023-02-02T23:07:44.265Z,4.23
2023-02-02T23:10:13.460Z,5.80
2023-02-02T23:12:41.221Z,6.27
2023-02-02T23:15:08.472Z,7.03
2023-02-02T23:17:37.829Z,6.23
2023-02-02T23:20:10.618Z,6.17
2023-02-02T23:22:37.255Z,4.90
2023-02-02T23:25:04.491Z,7.23
2023-02-02T23:27:31.123Z,5.60
2023-02-02T23:29:57.708Z,7.97
2023-02-02T23:32:24.425Z,5.67
2023-02-02T23:34:51.060Z,6.73
2023-02-02T23:37:17.837Z,7.60
2023-02-02T23:39:44.439Z,7.20
2023-02-02T23:42:11.132Z,6.40
2023-02-02T23:44:37.725Z,7.00
2023-02-02T23:47:04.830Z,5.77
2023-02-02T23:49:32.861Z,5.53
2023-02-02T23:52:00.223Z,4.73
2023-02-02T23:54:27.538Z,6.00
2023-02-02T23:56:54.257Z,5.17
2023-02-02T23:59:21.066Z,6.20
